Time;durP1;ratioP1;P1;durP2;ratioP2;P2;SDS_P1;SDS_P2;PMS_P1;PMS_P2;Temp;Humidity;BMP_temperature;BMP_pressure;BME280_temperature;BME280_humidity;BME280_pressure;Samples;Min_cycle;Max_cycle;Signal;HPM_P1;HPM_P2
2021/05/04 00:00:29;;;;;;;4.63;2.25;;;10.70;75.80;;;;;;5044009;28;20449;-63
2021/05/04 00:02:55;;;;;;;5.15;2.53;;;10.70;75.60;;;;;;5042145;28;20108;-64
2021/05/04 00:05:21;;;;;;;3.80;2.20;;;10.70;76.20;;;;;;5043891;28;20128;-65
2021/05/04 00:07:46;;;;;;;5.28;2.30;;;10.70;77.40;;;;;;5041637;28;20057;-63
2021/05/04 00:10:12;;;;;;;3.00;2.22;;;10.70;76.40;;;;;;5045120;28;20064;-64
2021/05/04 00:12:37;;;;;;;5.13;3.05;;;10.60;76.60;;;;;;5048196;28;20033;-64
2021/05/04 00:15:08;;;;;;;3.97;2.10;;;10.60;76.20;;;;;;5058448;28;20026;-64
2021/05/04 00:17:34;;;;;;;4.82;2.75;;;10.60;76.70;;;;;;5039193;28;20493;-63
2021/05/04 00:19:59;;;;;;;3.65;2.05;;;10.60;76.10;;;;;;5043683;28;20025;-63
2021/05/04 00:22:25;;;;;;;4.57;2.20;;;10.70;76.50;;;;;;5064619;28;20098;-64
2021/05/04 00:24:50;;;;;;;6.13;2.22;;;10.60;76.40;;;;;;5058096;28;20766;-64
2021/05/04 00:27:16;;;;;;;6.55;2.10;;;10.60;77.00;;;;;;5058439;28;20036;-63
2021/05/04 00:29:41;;;;;;;2.65;1.88;;;10.60;76.20;;;;;;5054496;28;20043;-64
2021/05/04 00:32:07;;;;;;;2.85;2.00;;;10.70;75.70;;;;;;5058352;28;20478;-62
2021/05/04 00:34:33;;;;;;;4.38;1.98;;;10.70;75.90;;;;;;5041008;28;20083;-65
2021/05/04 00:36:58;;;;;;;5.95;1.90;;;10.70;75.60;;;;;;5051492;28;20035;-61
2021/05/04 00:39:27;;;;;;;2.47;2.00;;;10.70;76.30;;;;;;5050121;28;20040;-63
2021/05/04 00:41:53;;;;;;;3.65;2.35;;;10.70;76.20;;;;;;5059221;28;20033;-64
2021/05/04 00:44:19;;;;;;;4.38;2.25;;;10.70;76.20;;;;;;5060754;28;20020;-64
2021/05/04 00:46:45;;;;;;;2.70;1.63;;;10.70;75.50;;;;;;5052277;28;20450;-64
2021/05/04 00:49:10;;;;;;;3.35;2.13;;;10.70;76.00;;;;;;5043318;28;20025;-64
2021/05/04 00:51:37;;;;;;;3.33;1.90;;;10.70;76.20;;;;;;5055076;28;20386;-64
2021/05/04 00:54:03;;;;;;;2.83;1.80;;;10.70;76.20;;;;;;5049328;28;20032;-64
2021/05/04 00:56:30;;;;;;;10.88;2.00;;;10.70;76.40;;;;;;5047408;28;20029;-64
2021/05/04 00:58:58;;;;;;;3.42;2.10;;;10.80;76.20;;;;;;5045246;28;20033;-64
2021/05/04 01:01:25;;;;;;;2.25;1.67;;;10.70;76.10;;;;;;5037502;28;20036;-64
2021/05/04 01:03:51;;;;;;;3.42;2.30;;;10.70;75.90;;;;;;5042683;28;20558;-64
2021/05/04 01:06:17;;;;;;;7.05;1.50;;;10.80;75.40;;;;;;5061066;28;20486;-64
2021/05/04 01:08:43;;;;;;;3.42;1.75;;;10.80;75.30;;;;;;5040686;28;20030;-65
2021/05/04 01:11:09;;;;;;;4.47;2.15;;;10.80;75.60;;;;;;5059276;28;20139;-63
2021/05/04 01:13:35;;;;;;;3.33;1.77;;;10.90;74.90;;;;;;5048450;28;20021;-60
2021/05/04 01:16:01;;;;;;;3.10;1.63;;;10.90;75.00;;;;;;5053515;28;20116;-64
2021/05/04 01:18:27;;;;;;;3.00;1.42;;;10.90;74.40;;;;;;5046040;28;20068;-64
2021/05/04 01:20:53;;;;;;;3.78;1.80;;;11.00;74.50;;;;;;5048934;28;20548;-64
2021/05/04 01:23:18;;;;;;;10.68;1.70;;;11.00;74.40;;;;;;5054132;28;20036;-64
2021/05/04 01:25:44;;;;;;;2.60;1.88;;;11.00;75.10;;;;;;5044980;28;20028;-64
2021/05/04 01:28:10;;;;;;;2.90;1.50;;;10.90;75.20;;;;;;5053576;28;20028;-64
2021/05/04 01:30:36;;;;;;;3.70;1.50;;;10.90;75.70;;;;;;5061272;28;20061;-64
2021/05/04 01:33:02;;;;;;;3.08;1.60;;;10.90;76.10;;;;;;5054694;28;20056;-63
2021/05/04 01:35:28;;;;;;;4.38;1.52;;;10.90;75.30;;;;;;5057716;28;20030;-64
2021/05/04 01:37:54;;;;;;;6.75;1.60;;;10.90;75.10;;;;;;5050738;28;20022;-64
2021/05/04 01:40:20;;;;;;;1.88;1.42;;;11.00;75.10;;;;;;5064816;28;20021;-65
2021/05/04 01:42:47;;;;;;;3.25;1.50;;;11.10;74.00;;;;;;5044721;28;20044;-63
2021/05/04 01:45:14;;;;;;;3.80;1.55;;;11.10;74.70;;;;;;5060395;28;20477;-63
2021/05/04 01:47:40;;;;;;;2.88;1.70;;;11.10;74.50;;;;;;5047139;28;20065;-63
2021/05/04 01:50:07;;;;;;;7.35;1.60;;;11.10;74.70;;;;;;5045692;28;20037;-64
2021/05/04 01:52:32;;;;;;;2.20;1.23;;;11.10;74.20;;;;;;5050870;28;20078;-64
2021/05/04 01:54:59;;;;;;;4.15;1.48;;;11.10;73.60;;;;;;5059894;28;20020;-63
2021/05/04 01:57:25;;;;;;;7.75;1.60;;;11.20;74.20;;;;;;5051085;28;20143;-64
2021/05/04 01:59:50;;;;;;;5.28;1.73;;;11.20;74.20;;;;;;5063336;28;20028;-64
2021/05/04 02:02:16;;;;;;;2.25;1.27;;;11.20;74.80;;;;;;5053685;28;20025;-64
2021/05/04 02:04:41;;;;;;;2.40;1.65;;;11.30;74.00;;;;;;5058455;28;20029;-64
2021/05/04 02:07:07;;;;;;;2.33;1.40;;;11.30;73.50;;;;;;5059980;28;20024;-64
2021/05/04 02:09:33;;;;;;;1.33;1.15;;;11.40;73.20;;;;;;5057881;28;20024;-64
2021/05/04 02:11:58;;;;;;;2.92;1.20;;;11.40;73.80;;;;;;5062595;28;20035;-63
2021/05/04 02:14:24;;;;;;;3.22;1.38;;;11.50;72.80;;;;;;5046455;28;20048;-65
2021/05/04 02:16:50;;;;;;;1.80;1.30;;;11.50;72.20;;;;;;5052777;28;20036;-63
2021/05/04 02:19:16;;;;;;;5.95;1.75;;;11.60;72.50;;;;;;5055870;28;20048;-64
2021/05/04 02:21:41;;;;;;;2.88;1.30;;;11.60;72.80;;;;;;5064571;28;20398;-65
2021/05/04 02:24:07;;;;;;;4.38;1.30;;;11.60;71.80;;;;;;5062495;28;20036;-64
2021/05/04 02:26:33;;;;;;;7.47;1.65;;;11.60;72.30;;;;;;5064404;28;20470;-64
2021/05/04 02:28:58;;;;;;;2.10;1.30;;;11.60;71.90;;;;;;5057246;28;20051;-64
2021/05/04 02:31:24;;;;;;;3.67;1.23;;;11.60;71.90;;;;;;5064109;28;20076;-64
2021/05/04 02:33:50;;;;;;;6.75;1.65;;;11.60;72.50;;;;;;5056469;28;20028;-63
2021/05/04 02:36:15;;;;;;;5.10;1.35;;;11.60;71.80;;;;;;5060896;28;20401;-64
2021/05/04 02:38:41;;;;;;;3.40;1.42;;;11.70;71.60;;;;;;5054956;28;20082;-64
2021/05/04 02:41:08;;;;;;;2.13;1.42;;;11.70;70.70;;;;;;5054824;28;20025;-64
2021/05/04 02:43:34;;;;;;;8.57;1.55;;;11.70;71.10;;;;;;5061600;28;20481;-64
2021/05/04 02:46:01;;;;;;;5.30;2.40;;;11.70;70.80;;;;;;5061909;28;20081;-64
2021/05/04 02:48:27;;;;;;;1.83;1.00;;;11.70;71.40;;;;;;5054946;28;20089;-66
2021/05/04 02:50:53;;;;;;;3.83;1.27;;;11.70;70.60;;;;;;5044710;28;20451;-64
2021/05/04 02:53:18;;;;;;;4.03;1.30;;;11.70;71.60;;;;;;5054036;28;20020;-65
2021/05/04 02:55:44;;;;;;;2.75;1.40;;;11.70;73.70;;;;;;5063820;28;20025;-64
2021/05/04 02:58:09;;;;;;;3.70;1.23;;;11.60;74.40;;;;;;5043950;28;20059;-64
2021/05/04 03:00:36;;;;;;;3.20;0.85;;;11.60;76.30;;;;;;5050647;28;20036;-63
2021/05/04 03:03:02;;;;;;;3.47;1.23;;;11.60;76.30;;;;;;5048847;28;20487;-65
2021/05/04 03:05:27;;;;;;;2.38;1.30;;;11.50;77.50;;;;;;5063969;28;20029;-65
2021/05/04 03:07:53;;;;;;;7.70;1.38;;;11.40;79.60;;;;;;5048828;28;20479;-65
2021/05/04 03:10:18;;;;;;;7.88;1.13;;;11.30;81.30;;;;;;5064228;28;20046;-64
2021/05/04 03:12:44;;;;;;;5.05;1.58;;;11.20;78.70;;;;;;5045649;28;20053;-64
2021/05/04 03:15:11;;;;;;;9.82;1.20;;;11.10;82.80;;;;;;5065059;28;20027;-64
2021/05/04 03:17:36;;;;;;;2.58;1.30;;;11.10;86.00;;;;;;5047043;28;20093;-64
2021/05/04 03:20:04;;;;;;;18.17;1.42;;;10.90;90.50;;;;;;5051041;28;20063;-64
2021/05/04 03:22:29;;;;;;;2.67;1.10;;;10.70;91.90;;;;;;5046657;28;20109;-64
2021/05/04 03:24:55;;;;;;;2.00;1.20;;;10.50;95.50;;;;;;5060134;28;20116;-64
2021/05/04 03:27:20;;;;;;;5.75;1.42;;;10.40;96.60;;;;;;5047876;28;20053;-61
2021/05/04 03:29:46;;;;;;;5.40;1.30;;;10.20;97.70;;;;;;5042886;28;20033;-64
2021/05/04 03:32:11;;;;;;;3.10;1.00;;;10.00;97.10;;;;;;5059066;28;20029;-64
2021/05/04 03:34:37;;;;;;;9.63;1.35;;;10.00;99.00;;;;;;5046887;28;20558;-64
2021/05/04 03:37:02;;;;;;;2.60;1.35;;;9.80;99.90;;;;;;5056414;28;20528;-63
2021/05/04 03:39:28;;;;;;;5.43;1.10;;;9.70;99.90;;;;;;5047745;28;20410;-64
2021/05/04 03:41:53;;;;;;;5.25;1.60;;;9.60;99.90;;;;;;5049141;28;20025;-64
2021/05/04 03:44:19;;;;;;;2.92;1.30;;;9.40;99.90;;;;;;5020938;28;20052;-64
2021/05/04 03:46:45;;;;;;;4.60;1.50;;;9.30;99.90;;;;;;5040201;28;20026;-63
2021/05/04 03:49:11;;;;;;;2.33;1.40;;;9.20;99.90;;;;;;5051304;28;20136;-64
2021/05/04 03:51:37;;;;;;;3.90;1.10;;;9.10;99.90;;;;;;5034627;28;20068;-64
2021/05/04 03:54:03;;;;;;;5.57;1.30;;;9.00;99.90;;;;;;5037478;28;20119;-64
2021/05/04 03:56:29;;;;;;;3.72;1.30;;;9.00;99.90;;;;;;5031367;28;20030;-64
2021/05/04 03:58:55;;;;;;;2.38;1.20;;;9.00;99.90;;;;;;5035729;28;20029;-64
2021/05/04 04:01:20;;;;;;;2.88;1.10;;;9.00;99.90;;;;;;5046150;28;20604;-64
2021/05/04 04:03:48;;;;;;;3.97;1.23;;;8.90;99.90;;;;;;5041474;28;20110;-65
2021/05/04 04:06:14;;;;;;;4.65;1.33;;;8.90;99.90;;;;;;5035269;28;20040;-64
2021/05/04 04:08:40;;;;;;;1.77;1.13;;;8.90;99.90;;;;;;5043433;28;20033;-64
2021/05/04 04:11:05;;;;;;;2.83;1.10;;;8.90;99.90;;;;;;5055886;28;20490;-64
2021/05/04 04:13:33;;;;;;;7.13;1.33;;;8.90;99.90;;;;;;5046465;28;20025;-64
2021/05/04 04:15:59;;;;;;;3.78;1.33;;;8.90;99.90;;;;;;5044293;28;20482;-65
2021/05/04 04:18:24;;;;;;;3.22;1.20;;;9.00;99.90;;;;;;5041705;28;20117;-64
2021/05/04 04:20:50;;;;;;;2.47;1.10;;;9.00;99.90;;;;;;5043573;28;20029;-64
2021/05/04 04:23:15;;;;;;;1.95;1.33;;;9.00;99.90;;;;;;5038260;28;20024;-65
2021/05/04 04:25:41;;;;;;;2.08;1.30;;;9.00;99.90;;;;;;5050484;28;20117;-64
2021/05/04 04:28:06;;;;;;;4.97;1.25;;;9.00;99.90;;;;;;5051052;28;20064;-64
2021/05/04 04:30:32;;;;;;;3.30;1.15;;;9.00;99.90;;;;;;5046658;28;20041;-64
2021/05/04 04:32:58;;;;;;;5.15;1.20;;;9.00;99.90;;;;;;5042227;28;20091;-64
2021/05/04 04:35:23;;;;;;;3.15;1.10;;;9.00;99.90;;;;;;5049497;28;20497;-63
2021/05/04 04:37:49;;;;;;;4.03;1.13;;;9.00;99.90;;;;;;5042318;28;20040;-64
2021/05/04 04:40:14;;;;;;;3.80;0.80;;;8.90;99.90;;;;;;5038459;28;20024;-64
2021/05/04 04:42:40;;;;;;;1.50;1.08;;;8.90;99.90;;;;;;5047598;28;20072;-64
2021/05/04 04:45:06;;;;;;;5.18;0.77;;;8.90;99.90;;;;;;5033481;28;20029;-63
2021/05/04 04:47:32;;;;;;;5.13;1.02;;;8.90;99.90;;;;;;5035493;28;20055;-63
2021/05/04 04:49:57;;;;;;;3.72;1.15;;;8.90;99.90;;;;;;5041358;28;20025;-64
2021/05/04 04:52:23;;;;;;;3.83;1.08;;;8.90;99.90;;;;;;5045783;28;20033;-63
2021/05/04 04:54:49;;;;;;;2.90;1.00;;;8.90;99.90;;;;;;5042596;28;20040;-61
2021/05/04 04:57:14;;;;;;;2.15;1.23;;;8.90;99.90;;;;;;5042396;28;20039;-64
2021/05/04 04:59:40;;;;;;;3.22;1.05;;;8.90;99.90;;;;;;5048601;28;20479;-63
2021/05/04 05:02:05;;;;;;;5.40;1.17;;;8.90;99.90;;;;;;5057998;28;20123;-62
2021/05/04 05:04:31;;;;;;;1.70;0.95;;;8.90;99.90;;;;;;5040293;28;20044;-64
2021/05/04 05:06:56;;;;;;;2.53;1.20;;;8.90;99.90;;;;;;5053868;28;20380;-63
2021/05/04 05:09:22;;;;;;;1.60;0.90;;;8.90;99.90;;;;;;5052928;28;20098;-64
2021/05/04 05:11:48;;;;;;;4.05;1.30;;;8.90;99.90;;;;;;5048481;28;20032;-63
2021/05/04 05:14:13;;;;;;;6.57;1.00;;;8.90;99.90;;;;;;5043821;28;20029;-64
2021/05/04 05:16:39;;;;;;;1.40;1.10;;;8.80;99.90;;;;;;5053198;28;20036;-64
2021/05/04 05:19:05;;;;;;;2.45;1.00;;;8.80;99.90;;;;;;5044857;28;20032;-64
2021/05/04 05:21:34;;;;;;;8.27;0.95;;;8.80;99.90;;;;;;5039272;28;20033;-64
2021/05/04 05:24:00;;;;;;;5.60;1.05;;;8.80;99.90;;;;;;5045974;28;20033;-64
2021/05/04 05:26:26;;;;;;;3.92;1.00;;;8.80;99.90;;;;;;5044573;28;20025;-64
2021/05/04 05:28:54;;;;;;;2.20;0.90;;;8.80;99.90;;;;;;5043936;28;20033;-65
2021/05/04 05:31:20;;;;;;;12.60;5.88;;;8.80;99.90;;;;;;5042666;28;20021;-65
2021/05/04 05:33:46;;;;;;;6.38;3.35;;;8.80;99.90;;;;;;5042614;28;20021;-64
2021/05/04 05:36:12;;;;;;;3.10;2.30;;;8.80;99.90;;;;;;5048720;28;20046;-63
2021/05/04 05:38:37;;;;;;;28.98;24.52;;;8.70;99.90;;;;;;5038641;28;20845;-64
2021/05/04 05:41:03;;;;;;;47.78;32.92;;;8.80;99.90;;;;;;5053415;28;20025;-64
2021/05/04 05:43:29;;;;;;;2.55;2.08;;;8.80;99.90;;;;;;5048945;28;20056;-64
2021/05/04 05:45:54;;;;;;;68.80;28.70;;;8.80;99.90;;;;;;5060501;28;20036;-63
2021/05/04 05:48:20;;;;;;;72.20;33.00;;;8.80;99.90;;;;;;5048249;28;20032;-66
2021/05/04 05:50:46;;;;;;;6.85;3.22;;;8.90;99.90;;;;;;5047698;28;20025;-64
2021/05/04 05:53:11;;;;;;;8.77;4.45;;;8.90;99.90;;;;;;5046522;28;20035;-62
2021/05/04 05:55:37;;;;;;;15.93;8.63;;;8.90;99.90;;;;;;5056074;28;20142;-64
2021/05/04 05:58:02;;;;;;;5.93;3.63;;;9.00;99.90;;;;;;5048258;28;20064;-64
2021/05/04 06:00:28;;;;;;;8.00;3.38;;;9.00;99.90;;;;;;5060921;28;20032;-64
2021/05/04 06:02:54;;;;;;;4.47;1.67;;;9.00;99.90;;;;;;5047524;28;20048;-63
2021/05/04 06:05:20;;;;;;;4.57;1.83;;;9.00;99.90;;;;;;5049510;28;20485;-64
2021/05/04 06:07:45;;;;;;;8.63;4.80;;;9.00;99.90;;;;;;5051766;28;20026;-63
2021/05/04 06:10:12;;;;;;;3.92;2.33;;;8.90;99.90;;;;;;5058357;28;20024;-64
2021/05/04 06:12:38;;;;;;;3.47;1.63;;;8.90;99.90;;;;;;5047751;28;20103;-64
2021/05/04 06:15:05;;;;;;;2.53;1.40;;;9.00;99.90;;;;;;5048818;28;20055;-63
2021/05/04 06:17:30;;;;;;;4.35;2.55;;;9.00;99.90;;;;;;5042331;28;20032;-62
2021/05/04 06:19:56;;;;;;;8.93;4.05;;;9.00;99.90;;;;;;5060541;28;20024;-62
2021/05/04 06:22:21;;;;;;;20.45;9.82;;;9.00;99.90;;;;;;5042071;28;20021;-63
2021/05/04 06:24:47;;;;;;;68.05;29.08;;;8.90;99.90;;;;;;5059250;28;20063;-64
2021/05/04 06:27:13;;;;;;;22.08;9.15;;;8.90;99.90;;;;;;5058620;28;20085;-64
2021/05/04 06:29:39;;;;;;;37.92;14.32;;;8.90;99.90;;;;;;5061396;28;20052;-64
2021/05/04 06:32:10;;;;;;;32.97;16.60;;;8.90;99.90;;;;;;5054570;28;20035;-64
2021/05/04 06:34:37;;;;;;;7.90;3.55;;;8.80;99.90;;;;;;5056279;28;20077;-64
2021/05/04 06:37:03;;;;;;;5.47;2.22;;;8.80;99.90;;;;;;5058060;28;20036;-63
2021/05/04 06:39:30;;;;;;;2.75;1.63;;;8.80;99.90;;;;;;5057728;28;20378;-64
2021/05/04 06:41:56;;;;;;;15.18;7.25;;;8.80;99.90;;;;;;5043873;28;20390;-64
2021/05/04 06:44:22;;;;;;;5.10;2.47;;;8.80;99.90;;;;;;5046142;28;20144;-64
2021/05/04 06:46:47;;;;;;;5.65;2.40;;;8.80;99.90;;;;;;5060094;28;20037;-64
2021/05/04 06:49:13;;;;;;;3.83;1.65;;;8.80;99.90;;;;;;5049971;28;20064;-64
2021/05/04 06:51:38;;;;;;;4.90;1.50;;;8.80;99.90;;;;;;5051903;28;20654;-64
2021/05/04 06:54:04;;;;;;;2.92;1.13;;;8.80;99.90;;;;;;5061840;28;20028;-65
2021/05/04 06:56:30;;;;;;;3.40;1.60;;;8.80;99.90;;;;;;5051926;28;20037;-64
2021/05/04 06:58:55;;;;;;;1.33;1.05;;;8.90;99.90;;;;;;5063631;28;20074;-64
2021/05/04 07:01:21;;;;;;;0.93;0.90;;;8.80;99.90;;;;;;5058254;28;20041;-64
2021/05/04 07:03:47;;;;;;;2.08;1.10;;;8.90;99.90;;;;;;5048288;28;20037;-65
2021/05/04 07:06:13;;;;;;;2.22;0.85;;;8.90;99.90;;;;;;5048085;28;20040;-64
2021/05/04 07:08:39;;;;;;;2.78;0.98;;;8.90;99.90;;;;;;5048665;28;20038;-64
2021/05/04 07:11:04;;;;;;;4.35;0.95;;;8.90;99.90;;;;;;5049780;28;20525;-63
2021/05/04 07:13:30;;;;;;;1.77;0.75;;;8.90;99.90;;;;;;5045771;28;20025;-64
2021/05/04 07:15:56;;;;;;;4.10;1.65;;;8.90;99.90;;;;;;5071952;28;20479;-63
2021/05/04 07:18:23;;;;;;;3.10;1.40;;;9.00;99.90;;;;;;5047950;28;20032;-64
2021/05/04 07:20:49;;;;;;;4.55;2.28;;;9.00;99.90;;;;;;5056758;28;20033;-62
2021/05/04 07:23:15;;;;;;;1.48;1.10;;;9.00;99.90;;;;;;5044645;28;20044;-63
2021/05/04 07:25:41;;;;;;;2.97;1.10;;;9.00;99.90;;;;;;5055599;28;20025;-64
2021/05/04 07:28:08;;;;;;;2.60;1.90;;;9.00;99.90;;;;;;5062484;28;20029;-63
2021/05/04 07:30:38;;;;;;;4.20;2.63;;;9.10;99.90;;;;;;5047950;28;20032;-63
2021/05/04 07:33:03;;;;;;;11.82;5.47;;;9.00;99.90;;;;;;5048652;28;20115;-64
2021/05/04 07:35:30;;;;;;;7.32;3.42;;;8.90;99.90;;;;;;5055169;28;20112;-65
2021/05/04 07:37:56;;;;;;;7.22;2.15;;;9.00;99.90;;;;;;5059171;28;20043;-64
2021/05/04 07:40:22;;;;;;;9.15;1.95;;;9.00;99.90;;;;;;5043989;28;20398;-64
2021/05/04 07:42:48;;;;;;;7.53;2.30;;;9.10;99.90;;;;;;5058993;28;20043;-64
2021/05/04 07:45:13;;;;;;;11.07;3.33;;;9.10;99.90;;;;;;5052744;28;20040;-64
2021/05/04 07:47:39;;;;;;;8.00;3.40;;;9.00;99.90;;;;;;5039000;28;20052;-62
2021/05/04 07:50:09;;;;;;;2.70;1.67;;;9.00;99.90;;;;;;5055469;28;20052;-63
2021/05/04 07:52:35;;;;;;;3.03;1.08;;;9.00;99.90;;;;;;5049996;28;20025;-64
2021/05/04 07:55:00;;;;;;;2.90;1.25;;;9.10;99.90;;;;;;5059799;28;20390;-64
2021/05/04 07:57:26;;;;;;;2.85;1.65;;;9.10;99.90;;;;;;5047491;28;20394;-64
2021/05/04 07:59:52;;;;;;;3.22;1.20;;;9.10;99.90;;;;;;5056205;28;20025;-64
2021/05/04 08:02:18;;;;;;;1.10;0.95;;;9.20;99.90;;;;;;5045905;28;20363;-65
2021/05/04 08:04:44;;;;;;;2.30;1.13;;;9.20;99.90;;;;;;5049016;28;20134;-65
2021/05/04 08:07:10;;;;;;;3.85;1.40;;;9.20;99.90;;;;;;5060473;28;20052;-64
2021/05/04 08:09:36;;;;;;;2.42;1.23;;;9.20;99.90;;;;;;5041438;28;20029;-64
2021/05/04 08:12:02;;;;;;;2.58;1.25;;;9.30;99.90;;;;;;5039696;28;20041;-63
2021/05/04 08:14:28;;;;;;;2.90;1.55;;;9.40;99.90;;;;;;5044979;28;20513;-64
2021/05/04 08:16:55;;;;;;;1.25;0.60;;;9.50;99.90;;;;;;5047924;28;20055;-63
2021/05/04 08:19:21;;;;;;;2.67;0.85;;;9.50;99.90;;;;;;5045445;28;20036;-64
2021/05/04 08:21:48;;;;;;;2.15;0.70;;;9.60;99.90;;;;;;5048707;28;20043;-64
2021/05/04 08:24:14;;;;;;;2.92;0.70;;;9.50;99.90;;;;;;5042209;28;20393;-64
2021/05/04 08:26:41;;;;;;;2.08;1.40;;;9.50;99.90;;;;;;5052861;28;20035;-64
2021/05/04 08:29:06;;;;;;;2.65;1.00;;;9.60;99.90;;;;;;5057626;28;20029;-65
2021/05/04 08:31:33;;;;;;;0.63;0.60;;;9.80;99.90;;;;;;5061601;28;20028;-64
2021/05/04 08:33:59;;;;;;;2.70;0.70;;;9.70;99.90;;;;;;5042873;28;20079;-63
2021/05/04 08:36:25;;;;;;;1.75;0.77;;;9.70;99.90;;;;;;5053973;28;20033;-63
2021/05/04 08:38:51;;;;;;;4.28;1.08;;;9.70;99.90;;;;;;5067508;28;20028;-63
2021/05/04 08:41:17;;;;;;;3.70;0.85;;;9.80;99.90;;;;;;5057142;28;20279;-64
2021/05/04 08:43:50;;;;;;;0.90;0.60;;;9.90;99.90;;;;;;5046457;28;20033;-64
2021/05/04 08:46:18;;;;;;;2.80;0.95;;;9.80;99.90;;;;;;5037629;28;20016;-64
2021/05/04 08:48:45;;;;;;;3.38;0.80;;;9.90;99.90;;;;;;5038478;28;20056;-64
2021/05/04 08:51:14;;;;;;;4.20;0.93;;;10.00;99.90;;;;;;5052235;28;20018;-64
2021/05/04 08:53:40;;;;;;;1.65;0.60;;;10.10;99.90;;;;;;5060392;28;20031;-63
2021/05/04 08:56:14;;;;;;;2.90;0.90;;;10.20;99.90;;;;;;5046564;28;20021;-63
2021/05/04 08:58:41;;;;;;;;;;;10.30;99.90;;;;;;5062272;28;20107;-63
2021/05/04 09:01:06;;;;;;;3.78;0.98;;;10.40;99.90;;;;;;5060078;28;19908;-64
2021/05/04 09:03:43;;;;;;;1.75;1.17;;;10.60;99.90;;;;;;5052222;28;20044;-64
2021/05/04 09:06:16;;;;;;;2.92;0.75;;;10.60;99.90;;;;;;5052830;28;20027;-64
2021/05/04 09:09:05;;;;;;;3.70;1.15;;;10.70;99.90;;;;;;5050745;28;20025;-63
2021/05/04 09:11:35;;;;;;;1.83;1.00;;;10.80;99.90;;;;;;5041589;28;20034;-62
2021/05/04 09:21:44;;;;;;;2.33;1.00;;;11.20;99.90;;;;;;5050358;28;20128;-61
2021/05/04 09:24:31;;;;;;;3.05;1.17;;;11.20;99.90;;;;;;5054699;28;20100;-63
2021/05/04 09:27:15;;;;;;;3.92;1.65;;;11.30;99.90;;;;;;5042898;28;20099;-64
2021/05/04 09:29:42;;;;;;;6.22;0.95;;;11.40;99.90;;;;;;5048473;28;20044;-63
2021/05/04 09:32:12;;;;;;;2.75;0.90;;;11.40;99.90;;;;;;5049790;28;20545;-63
2021/05/04 09:34:53;;;;;;;3.00;0.93;;;11.40;99.90;;;;;;5050866;28;20074;-64
2021/05/04 09:37:26;;;;;;;8.52;1.75;;;11.40;99.90;;;;;;5050048;28;20032;-62
2021/05/04 09:39:52;;;;;;;5.22;2.13;;;11.40;99.90;;;;;;5055344;28;20032;-61
2021/05/04 09:42:18;;;;;;;19.25;7.85;;;11.20;99.90;;;;;;5053059;28;20036;-63
2021/05/04 09:44:48;;;;;;;13.45;5.90;;;11.10;99.90;;;;;;5049892;28;20103;-62
2021/05/04 09:47:24;;;;;;;17.58;4.90;;;11.00;99.90;;;;;;5032063;28;20151;-63
2021/05/04 09:49:51;;;;;;;9.32;2.58;;;10.90;99.90;;;;;;5020792;28;20679;-63
2021/05/04 09:55:11;;;;;;;2.80;1.98;;;11.10;99.90;;;;;;5042417;28;20036;-64
2021/05/04 09:57:41;;;;;;;2.95;1.08;;;11.20;99.90;;;;;;5050505;28;20639;-63
2021/05/04 10:00:12;;;;;;;9.73;3.03;;;11.40;99.90;;;;;;5040448;28;20079;-64
2021/05/04 10:02:39;;;;;;;9.50;3.85;;;11.50;99.90;;;;;;5040885;28;20108;-63
2021/05/04 10:05:07;;;;;;;2.00;1.58;;;11.60;99.90;;;;;;5045603;28;20448;-64
2021/05/04 10:07:34;;;;;;;1.85;1.10;;;11.60;99.90;;;;;;5049249;28;20046;-63
2021/05/04 10:10:01;;;;;;;3.15;1.50;;;11.70;99.90;;;;;;5048340;28;20044;-64
2021/05/04 10:12:28;;;;;;;8.23;3.95;;;11.60;99.90;;;;;;5040363;28;20026;-64
2021/05/04 10:14:57;;;;;;;6.53;1.80;;;11.40;99.90;;;;;;5052463;28;20104;-64
2021/05/04 10:17:23;;;;;;;6.30;2.75;;;11.20;99.90;;;;;;5045287;28;20040;-64
2021/05/04 10:19:50;;;;;;;4.15;1.30;;;11.20;99.90;;;;;;5065505;28;20052;-64
2021/05/04 10:22:17;;;;;;;4.47;1.50;;;11.20;99.90;;;;;;5051138;28;20036;-63
2021/05/04 10:24:44;;;;;;;5.75;2.13;;;11.30;99.90;;;;;;5049739;28;20488;-65
2021/05/04 10:27:10;;;;;;;8.52;4.05;;;11.40;99.90;;;;;;5041986;28;20700;-64
2021/05/04 10:29:37;;;;;;;4.00;1.83;;;11.50;99.90;;;;;;5042149;28;20398;-65
2021/05/04 10:32:04;;;;;;;5.38;1.95;;;11.70;99.90;;;;;;5057036;28;20025;-65
2021/05/04 10:34:32;;;;;;;3.20;1.75;;;11.80;99.90;;;;;;5043137;28;20029;-64
2021/05/04 10:37:27;;;;;;;10.45;4.60;;;11.90;99.90;;;;;;5038273;28;20067;-65
2021/05/04 10:39:52;;;;;;;4.65;2.25;;;12.00;99.90;;;;;;5047261;28;20556;-64
2021/05/04 10:42:36;;;;;;;9.63;2.60;;;12.30;99.90;;;;;;5058165;28;20036;-65
2021/05/04 10:45:01;;;;;;;4.90;1.60;;;12.70;99.90;;;;;;5057564;28;20033;-65
2021/05/04 10:47:39;;;;;;;4.55;2.08;;;12.90;99.90;;;;;;5056187;28;20028;-64
2021/05/04 10:50:08;;;;;;;4.70;2.38;;;12.90;99.90;;;;;;5026903;28;20037;-64
2021/05/04 10:52:57;;;;;;;10.75;3.08;;;12.80;99.90;;;;;;5026607;28;20040;-64
2021/05/04 10:55:25;;;;;;;13.93;4.47;;;12.60;99.90;;;;;;5053141;28;20037;-65
2021/05/04 10:58:05;;;;;;;8.45;2.88;;;12.30;99.90;;;;;;5054874;28;20032;-64
2021/05/04 11:00:52;;;;;;;3.38;1.73;;;12.10;99.90;;;;;;5058083;28;20021;-66
2021/05/04 11:03:30;;;;;;;7.43;2.58;;;12.40;99.90;;;;;;5046365;28;20033;-65
2021/05/04 11:06:09;;;;;;;16.65;2.45;;;12.80;99.90;;;;;;5063023;28;20398;-65
2021/05/04 11:08:40;;;;;;;6.25;2.53;;;13.20;99.90;;;;;;5057351;28;20059;-65
2021/05/04 11:11:38;;;;;;;4.78;1.88;;;13.20;99.90;;;;;;5044360;28;20018;-64
2021/05/04 11:14:08;;;;;;;13.50;4.70;;;13.10;99.90;;;;;;5050767;28;20017;-65
2021/05/04 11:16:42;;;;;;;14.38;4.15;;;13.20;99.90;;;;;;5068257;28;20027;-64
2021/05/04 11:19:33;;;;;;;15.50;5.10;;;13.20;99.90;;;;;;5055067;28;20108;-64
2021/05/04 11:21:58;;;;;;;19.58;7.78;;;13.10;99.90;;;;;;5058541;28;20029;-65
2021/05/04 11:24:33;;;;;;;25.45;10.50;;;13.00;99.90;;;;;;5059329;28;20050;-65
2021/05/04 11:27:16;;;;;;;5.05;1.88;;;13.10;99.90;;;;;;5044930;28;20026;-64
2021/05/04 11:29:42;;;;;;;7.50;1.83;;;12.90;99.90;;;;;;5049109;28;20581;-64
2021/05/04 11:32:11;;;;;;;9.35;2.60;;;12.40;99.90;;;;;;5036806;28;20478;-65
2021/05/04 11:35:03;;;;;;;6.25;1.98;;;12.10;99.90;;;;;;5042145;28;20029;-64
2021/05/04 11:37:31;;;;;;;17.63;5.07;;;11.60;99.90;;;;;;5048343;28;20055;-64
2021/05/04 11:40:16;;;;;;;9.38;3.70;;;11.60;99.90;;;;;;5057000;28;20029;-64
2021/05/04 11:42:45;;;;;;;8.95;3.75;;;11.80;99.90;;;;;;5056580;28;20700;-64
2021/05/04 11:45:11;;;;;;;19.90;4.25;;;12.10;99.90;;;;;;5047573;28;20071;-65
2021/05/04 11:48:02;;;;;;;8.95;3.28;;;12.60;99.90;;;;;;5044607;28;20103;-64
2021/05/04 11:50:40;;;;;;;10.95;2.20;;;13.10;99.90;;;;;;5022109;28;20099;-64
2021/05/04 11:53:08;;;;;;;7.60;1.92;;;13.20;99.90;;;;;;5050389;28;20032;-65
2021/05/04 11:55:38;;;;;;;8.80;1.50;;;13.50;99.90;;;;;;5056653;28;20028;-64
2021/05/04 11:58:06;;;;;;;9.18;2.95;;;13.40;99.90;;;;;;5046891;28;20067;-64
2021/05/04 12:00:34;;;;;;;8.15;2.78;;;13.50;99.90;;;;;;5057130;28;20111;-64
2021/05/04 12:03:13;;;;;;;11.68;2.42;;;13.50;99.90;;;;;;5048750;28;20040;-63
2021/05/04 12:05:40;;;;;;;11.02;1.85;;;13.40;99.90;;;;;;5045783;28;20029;-66
2021/05/04 12:08:06;;;;;;;8.60;1.90;;;13.80;99.90;;;;;;5052374;28;20386;-64
2021/05/04 12:10:40;;;;;;;8.52;1.75;;;13.90;99.90;;;;;;5044319;28;20044;-64
2021/05/04 12:13:14;;;;;;;8.35;1.45;;;13.90;99.90;;;;;;5046326;28;20179;-65
2021/05/04 12:15:42;;;;;;;11.50;3.05;;;13.70;99.00;;;;;;5052356;28;20029;-64
2021/05/04 12:18:13;;;;;;;10.50;1.48;;;13.80;99.00;;;;;;5055756;28;20041;-64
2021/05/04 12:20:40;;;;;;;9.85;1.80;;;13.80;95.00;;;;;;5049066;28;20116;-64
2021/05/04 12:23:08;;;;;;;11.57;2.17;;;13.70;93.70;;;;;;5044301;28;20036;-64
2021/05/04 12:25:38;;;;;;;14.57;1.42;;;13.80;94.00;;;;;;5042934;28;20120;-63
2021/05/04 12:28:18;;;;;;;15.20;2.00;;;13.80;93.60;;;;;;5048327;28;20033;-63
2021/05/04 12:30:45;;;;;;;9.27;1.80;;;13.80;92.90;;;;;;5047702;28;20391;-64
2021/05/04 12:33:11;;;;;;;16.15;2.50;;;13.90;93.00;;;;;;5047633;28;20390;-63
2021/05/04 12:35:54;;;;;;;12.60;1.45;;;13.90;90.90;;;;;;5058274;28;20087;-65
2021/05/04 12:38:24;;;;;;;11.60;2.00;;;13.90;91.80;;;;;;5038650;28;20044;-63
2021/05/04 12:41:08;;;;;;;6.15;1.05;;;14.00;90.10;;;;;;5056799;28;20112;-63
2021/05/04 12:43:39;;;;;;;6.15;0.95;;;14.10;87.00;;;;;;5055053;28;20062;-63
2021/05/04 12:46:15;;;;;;;6.97;1.80;;;14.30;81.80;;;;;;5059166;28;20039;-64
2021/05/04 12:48:42;;;;;;;10.15;2.50;;;14.30;85.10;;;;;;5047634;28;20086;-62
2021/05/04 12:51:14;;;;;;;8.27;1.88;;;14.40;83.10;;;;;;5032977;28;20135;-64
2021/05/04 12:53:43;;;;;;;12.93;1.80;;;14.50;84.30;;;;;;5057361;28;20039;-64
2021/05/04 12:56:10;;;;;;;10.32;1.90;;;14.80;81.20;;;;;;5056506;28;20012;-64
2021/05/04 12:58:55;;;;;;;10.73;2.22;;;14.50;80.70;;;;;;5058313;28;20034;-64
2021/05/04 13:01:31;;;;;;;11.63;1.90;;;14.60;80.30;;;;;;5043166;28;20033;-65
2021/05/04 13:03:58;;;;;;;18.95;3.15;;;14.60;80.30;;;;;;5046947;28;20112;-64